Time;durP1;ratioP1;P1;durP2;ratioP2;P2;SDS_P1;SDS_P2;PMS_P1;PMS_P2;Temp;Humidity;BMP_temperature;BMP_pressure;BME280_temperature;BME280_humidity;BME280_pressure;Samples;Min_cycle;Max_cycle;Signal;HPM_P1;HPM_P2
2022/05/02 00:00:44;;;;;;;2.80;1.88;;;19.00;42.20;;;;;;5055708;28;20024;-55
2022/05/02 00:03:09;;;;;;;2.00;1.80;;;19.00;42.30;;;;;;5057086;28;20017;-53
2022/05/02 00:05:37;;;;;;;2.53;1.67;;;19.00;42.30;;;;;;5056608;28;20041;-53
2022/05/02 00:08:03;;;;;;;2.22;1.73;;;19.00;42.30;;;;;;5056141;28;20033;-55
2022/05/02 00:10:29;;;;;;;1.70;1.60;;;19.00;42.30;;;;;;5056160;28;20017;-54
2022/05/02 00:12:55;;;;;;;2.53;1.83;;;18.90;42.30;;;;;;5061120;28;20009;-57
2022/05/02 00:15:22;;;;;;;1.92;1.83;;;18.90;42.30;;;;;;5064189;28;20487;-58
2022/05/02 00:17:58;;;;;;;2.63;1.73;;;19.00;42.40;;;;;;5063225;28;20013;-56
2022/05/02 00:20:28;;;;;;;1.70;1.60;;;18.90;42.40;;;;;;5059268;28;20021;-57
2022/05/02 00:22:54;;;;;;;2.08;1.77;;;18.90;42.40;;;;;;5057093;28;20032;-56
2022/05/02 00:25:20;;;;;;;3.08;1.90;;;18.90;42.40;;;;;;5057564;28;20574;-55
2022/05/02 00:27:46;;;;;;;2.25;1.73;;;18.90;42.40;;;;;;5058090;28;20494;-55
2022/05/02 00:30:12;;;;;;;2.08;1.90;;;18.90;42.40;;;;;;5057578;28;20074;-55
2022/05/02 00:32:38;;;;;;;3.13;2.15;;;18.90;42.40;;;;;;5058158;28;20013;-52
2022/05/02 00:35:05;;;;;;;2.20;2.00;;;18.90;42.50;;;;;;5057818;28;20005;-54
2022/05/02 00:37:31;;;;;;;2.25;2.05;;;18.90;42.50;;;;;;5057469;28;20104;-55
2022/05/02 00:39:57;;;;;;;2.92;1.80;;;18.90;42.50;;;;;;5056834;28;20536;-54
2022/05/02 00:42:23;;;;;;;2.90;1.98;;;18.90;42.40;;;;;;5056532;28;20044;-55
2022/05/02 00:44:50;;;;;;;2.55;2.05;;;18.90;42.50;;;;;;5055670;28;20053;-55
2022/05/02 00:47:20;;;;;;;2.47;1.70;;;18.90;42.50;;;;;;5055687;28;20485;-53
2022/05/02 00:49:46;;;;;;;1.73;1.63;;;18.90;42.60;;;;;;5055750;28;20020;-51
2022/05/02 00:52:12;;;;;;;2.83;2.00;;;18.90;42.50;;;;;;5055660;28;20005;-53
2022/05/02 00:54:39;;;;;;;1.80;1.70;;;18.90;42.60;;;;;;5055472;28;20510;-52
2022/05/02 00:57:06;;;;;;;2.00;1.80;;;18.90;42.60;;;;;;5056276;28;20021;-53
2022/05/02 00:59:31;;;;;;;2.30;2.10;;;18.90;42.60;;;;;;5055682;28;20031;-54
2022/05/02 01:01:58;;;;;;;2.13;1.92;;;18.90;42.60;;;;;;5054397;28;20017;-54
2022/05/02 01:04:25;;;;;;;2.42;1.92;;;18.90;42.60;;;;;;5055395;28;20039;-54
2022/05/02 01:07:11;;;;;;;2.00;1.85;;;18.90;42.60;;;;;;5055048;28;20479;-52
2022/05/02 01:09:38;;;;;;;2.05;1.85;;;18.90;42.60;;;;;;5055681;28;20017;-54
2022/05/02 01:12:14;;;;;;;3.20;2.33;;;18.90;42.60;;;;;;5055406;28;20063;-51
2022/05/02 01:14:40;;;;;;;2.78;2.05;;;18.80;42.60;;;;;;5055606;28;20028;-55
2022/05/02 01:17:07;;;;;;;4.55;1.80;;;18.80;42.60;;;;;;5055290;28;20510;-54
2022/05/02 01:19:37;;;;;;;3.22;1.75;;;18.80;42.60;;;;;;5055053;28;20025;-54
2022/05/02 01:22:04;;;;;;;2.30;2.10;;;18.80;42.60;;;;;;5054013;28;20033;-50
2022/05/02 01:24:34;;;;;;;2.38;1.88;;;18.80;42.60;;;;;;5055739;28;20033;-52
2022/05/02 01:27:00;;;;;;;3.05;2.30;;;18.80;42.60;;;;;;5055305;28;20090;-54
2022/05/02 01:29:26;;;;;;;2.15;1.95;;;18.80;42.70;;;;;;5055296;28;20017;-52
2022/05/02 01:31:55;;;;;;;2.55;2.00;;;18.80;42.70;;;;;;5055416;28;20009;-57
2022/05/02 01:34:21;;;;;;;2.67;2.35;;;18.80;42.70;;;;;;5055597;28;20014;-56
2022/05/02 01:36:47;;;;;;;2.70;2.05;;;18.80;42.80;;;;;;5054032;28;20020;-55
2022/05/02 01:39:13;;;;;;;2.00;1.85;;;18.80;42.80;;;;;;5054119;28;20025;-54
2022/05/02 01:41:40;;;;;;;2.40;1.98;;;18.80;42.80;;;;;;5054712;28;20017;-56
2022/05/02 01:44:06;;;;;;;2.30;2.08;;;18.80;42.80;;;;;;5054453;28;20016;-52
2022/05/02 01:46:31;;;;;;;2.75;1.90;;;18.80;42.80;;;;;;5054488;28;20033;-50
2022/05/02 01:48:57;;;;;;;2.38;1.92;;;18.80;42.80;;;;;;5053453;28;20028;-53
2022/05/02 01:51:23;;;;;;;2.53;2.10;;;18.80;42.80;;;;;;5054388;28;20468;-50
2022/05/02 01:53:49;;;;;;;3.33;2.17;;;18.80;42.80;;;;;;5054526;28;20017;-52
2022/05/02 01:56:15;;;;;;;2.30;2.10;;;18.80;42.80;;;;;;5054342;28;20024;-53
2022/05/02 01:58:41;;;;;;;2.10;1.90;;;18.80;42.80;;;;;;5054985;28;20021;-52
2022/05/02 02:01:08;;;;;;;2.47;2.28;;;18.80;42.80;;;;;;5053244;28;20020;-52
2022/05/02 02:03:33;;;;;;;2.20;2.00;;;18.80;42.80;;;;;;5054707;28;20021;-51
2022/05/02 02:05:59;;;;;;;2.72;2.20;;;18.70;42.80;;;;;;5054486;28;20021;-52
2022/05/02 02:08:31;;;;;;;1.92;1.80;;;18.70;42.80;;;;;;5054357;28;20483;-54
2022/05/02 02:10:58;;;;;;;2.20;2.00;;;18.70;42.90;;;;;;5054988;28;20024;-57
2022/05/02 02:13:24;;;;;;;2.20;2.00;;;18.70;42.80;;;;;;5054381;28;20020;-58
2022/05/02 02:15:51;;;;;;;3.25;2.30;;;18.70;42.80;;;;;;5054756;28;20552;-58
2022/05/02 02:18:17;;;;;;;2.20;2.08;;;18.70;42.90;;;;;;5054262;28;20419;-58
2022/05/02 02:20:44;;;;;;;2.90;2.03;;;18.70;42.90;;;;;;5054721;28;20096;-58
2022/05/02 02:23:10;;;;;;;2.20;2.00;;;18.70;42.90;;;;;;5053690;28;20095;-58
2022/05/02 02:25:37;;;;;;;2.30;2.10;;;18.70;42.90;;;;;;5054332;28;20095;-52
2022/05/02 02:28:03;;;;;;;2.17;1.88;;;18.70;42.90;;;;;;5052523;28;20021;-54
2022/05/02 02:30:29;;;;;;;2.60;2.38;;;18.70;42.90;;;;;;5053694;28;20105;-51
2022/05/02 02:32:56;;;;;;;2.17;1.98;;;18.70;42.90;;;;;;5054100;28;20037;-53
2022/05/02 02:35:22;;;;;;;2.25;1.90;;;18.70;43.00;;;;;;5053831;28;20021;-55
2022/05/02 02:37:48;;;;;;;2.85;2.13;;;18.70;42.90;;;;;;5053392;28;20079;-55
2022/05/02 02:40:14;;;;;;;2.92;1.85;;;18.70;43.00;;;;;;5053296;28;20426;-54
2022/05/02 02:42:42;;;;;;;2.40;2.20;;;18.70;42.90;;;;;;5056990;28;20036;-52
2022/05/02 02:45:09;;;;;;;3.17;2.17;;;18.70;42.90;;;;;;5055478;28;20120;-55
2022/05/02 02:47:35;;;;;;;2.85;2.28;;;18.70;42.90;;;;;;5056907;28;20021;-56
2022/05/02 02:50:01;;;;;;;2.88;2.03;;;18.70;42.90;;;;;;5056183;28;20025;-56
2022/05/02 02:52:28;;;;;;;4.70;2.20;;;18.70;43.00;;;;;;5057296;28;20139;-54
2022/05/02 02:54:54;;;;;;;2.35;2.15;;;18.70;43.00;;;;;;5056853;28;20025;-53
2022/05/02 02:57:20;;;;;;;2.33;2.13;;;18.70;43.00;;;;;;5053622;28;20044;-53
2022/05/02 02:59:47;;;;;;;2.50;2.30;;;18.70;43.00;;;;;;5053877;28;20106;-54
2022/05/02 03:02:14;;;;;;;3.42;2.60;;;18.70;43.00;;;;;;5053717;28;20020;-54
2022/05/02 03:07:24;;;;;;;2.25;2.05;;;18.70;43.00;;;;;;5053336;28;20048;-54
2022/05/02 03:09:50;;;;;;;3.15;2.42;;;18.60;43.00;;;;;;5053266;28;20051;-56
2022/05/02 03:12:18;;;;;;;3.17;2.00;;;18.60;43.10;;;;;;5052060;28;20037;-53
2022/05/02 03:14:44;;;;;;;2.20;2.00;;;18.70;43.10;;;;;;5053592;28;20052;-54
2022/05/02 03:17:10;;;;;;;2.42;2.00;;;18.70;42.80;;;;;;5053373;28;20017;-57
2022/05/02 03:19:37;;;;;;;3.58;2.22;;;18.80;42.80;;;;;;5053393;28;20025;-57
2022/05/02 03:22:03;;;;;;;2.38;2.10;;;18.90;42.60;;;;;;5052996;28;20045;-54
2022/05/02 03:24:29;;;;;;;2.25;2.05;;;18.90;42.50;;;;;;5053077;28;20117;-55
2022/05/02 03:26:56;;;;;;;2.40;2.03;;;19.00;42.40;;;;;;5053019;28;20033;-56
2022/05/02 03:29:22;;;;;;;2.90;2.30;;;19.10;42.30;;;;;;5051937;28;20021;-54
2022/05/02 03:31:48;;;;;;;1.80;1.70;;;19.20;42.10;;;;;;5052155;28;20471;-55
2022/05/02 03:34:14;;;;;;;3.42;2.10;;;19.20;42.00;;;;;;5053730;28;20052;-56
2022/05/02 03:36:41;;;;;;;2.15;1.90;;;19.30;41.90;;;;;;5057461;28;20052;-54
2022/05/02 03:39:07;;;;;;;3.88;1.85;;;19.40;41.70;;;;;;5056690;28;20025;-52
2022/05/02 03:41:33;;;;;;;2.47;2.28;;;19.50;41.50;;;;;;5057084;28;20059;-57
2022/05/02 03:43:59;;;;;;;2.58;1.90;;;19.60;41.30;;;;;;5057733;28;20025;-56
2022/05/02 03:46:25;;;;;;;2.88;2.00;;;19.70;41.00;;;;;;5057843;28;20016;-53
2022/05/02 03:48:51;;;;;;;2.00;1.77;;;19.90;40.90;;;;;;5056481;28;20534;-57
2022/05/02 03:51:17;;;;;;;3.35;2.45;;;20.00;40.60;;;;;;5057313;28;20020;-55
2022/05/02 03:53:44;;;;;;;3.72;1.88;;;20.10;40.40;;;;;;5057812;28;20052;-57
2022/05/02 03:56:10;;;;;;;2.22;1.90;;;20.20;40.20;;;;;;5056415;28;20017;-57
2022/05/02 03:58:36;;;;;;;2.47;1.98;;;20.40;40.00;;;;;;5057221;28;20475;-57
2022/05/02 04:01:02;;;;;;;2.08;1.75;;;20.50;39.70;;;;;;5057293;28;20112;-55
2022/05/02 04:03:28;;;;;;;2.72;1.77;;;20.50;39.60;;;;;;5056879;28;20021;-55
2022/05/02 04:05:55;;;;;;;2.20;1.88;;;20.60;40.00;;;;;;5057034;28;20029;-58
2022/05/02 04:08:22;;;;;;;2.03;1.80;;;20.70;39.40;;;;;;5056826;28;20090;-55
2022/05/02 04:10:48;;;;;;;2.38;1.90;;;20.70;39.30;;;;;;5057029;28;20053;-57
2022/05/02 04:13:15;;;;;;;2.08;1.70;;;20.70;39.30;;;;;;5057975;28;20013;-53
2022/05/02 04:15:41;;;;;;;2.10;1.90;;;20.70;39.20;;;;;;5058050;28;20025;-57
2022/05/02 04:18:08;;;;;;;2.00;1.80;;;20.70;39.20;;;;;;5057437;28;20024;-59
2022/05/02 04:20:33;;;;;;;2.00;1.80;;;20.70;39.30;;;;;;5058174;28;20025;-58
2022/05/02 04:22:59;;;;;;;2.30;1.60;;;20.70;39.30;;;;;;5057435;28;20067;-57
2022/05/02 04:25:25;;;;;;;1.85;1.50;;;20.70;39.30;;;;;;5057426;28;20021;-56
2022/05/02 04:27:51;;;;;;;2.05;1.80;;;20.70;39.40;;;;;;5055629;28;20094;-56
2022/05/02 04:30:17;;;;;;;1.63;1.52;;;20.70;39.40;;;;;;5057068;28;20018;-57
2022/05/02 04:32:43;;;;;;;2.03;1.83;;;20.70;39.40;;;;;;5056319;28;20529;-56
2022/05/02 04:35:10;;;;;;;1.73;1.63;;;20.70;39.30;;;;;;5056135;28;20462;-54
2022/05/02 04:37:37;;;;;;;2.08;1.58;;;20.70;39.30;;;;;;5056298;28;20024;-57
2022/05/02 04:40:04;;;;;;;2.97;1.88;;;20.80;39.20;;;;;;5056463;28;20028;-57
2022/05/02 04:42:31;;;;;;;1.98;1.77;;;20.80;39.20;;;;;;5056952;28;20479;-57
2022/05/02 04:44:56;;;;;;;2.22;1.95;;;20.80;39.10;;;;;;5057120;28;20025;-58
2022/05/02 04:47:22;;;;;;;2.05;1.90;;;20.90;39.20;;;;;;5057015;28;20028;-56
2022/05/02 04:49:49;;;;;;;3.55;2.00;;;20.80;39.10;;;;;;5055702;28;20013;-58
2022/05/02 04:52:15;;;;;;;1.95;1.70;;;20.90;39.10;;;;;;5057028;28;20021;-58
2022/05/02 04:54:41;;;;;;;1.90;1.70;;;20.90;39.10;;;;;;5056060;28;20014;-57
2022/05/02 04:57:07;;;;;;;2.72;2.05;;;20.90;39.10;;;;;;5055849;28;20075;-57
2022/05/02 04:59:34;;;;;;;2.33;1.83;;;20.90;39.10;;;;;;5055298;28;20017;-57
2022/05/02 05:02:00;;;;;;;2.17;1.60;;;21.00;39.10;;;;;;5055534;28;20014;-53
2022/05/02 05:04:26;;;;;;;1.48;1.38;;;21.00;39.10;;;;;;5056518;28;20530;-56
2022/05/02 05:06:54;;;;;;;3.55;1.67;;;21.00;39.00;;;;;;5055298;28;20033;-57
2022/05/02 05:09:20;;;;;;;2.10;1.90;;;21.00;39.00;;;;;;5056712;28;20024;-55
2022/05/02 05:11:54;;;;;;;5.47;1.85;;;21.00;39.00;;;;;;5056671;28;20013;-51
2022/05/02 05:18:04;;;;;;;2.30;1.90;;;21.10;39.00;;;;;;5055052;28;20032;-50
2022/05/02 05:20:33;;;;;;;2.22;2.03;;;21.10;38.90;;;;;;5056025;28;20103;-49
2022/05/02 05:23:26;;;;;;;3.70;1.95;;;21.20;38.90;;;;;;5055536;28;20045;-51
2022/05/02 05:26:05;;;;;;;1.90;1.70;;;21.20;38.90;;;;;;5055747;28;20052;-50
2022/05/02 05:28:49;;;;;;;1.63;1.42;;;21.10;38.90;;;;;;5053456;28;20025;-50
2022/05/02 05:31:21;;;;;;;2.13;1.75;;;21.20;38.90;;;;;;5054629;28;20021;-50
2022/05/02 05:34:08;;;;;;;2.13;1.60;;;21.20;38.80;;;;;;5054635;28;20088;-50
2022/05/02 05:36:43;;;;;;;1.98;1.80;;;21.20;38.80;;;;;;5054912;28;20019;-49
2022/05/02 05:39:31;;;;;;;1.95;1.80;;;21.30;38.70;;;;;;5053724;28;20009;-48
2022/05/02 05:42:27;;;;;;;2.05;1.70;;;21.30;39.30;;;;;;5053083;28;20361;-52
2022/05/02 05:45:01;;;;;;;2.13;1.80;;;21.30;38.80;;;;;;5039569;28;20060;-52
2022/05/02 05:48:05;;;;;;;2.92;1.90;;;21.30;38.80;;;;;;5053306;28;20100;-52
2022/05/02 05:50:31;;;;;;;2.28;1.75;;;21.30;38.70;;;;;;5054058;28;20032;-52
2022/05/02 05:53:07;;;;;;;2.15;1.75;;;21.30;38.70;;;;;;5052875;28;20495;-52
2022/05/02 05:55:51;;;;;;;2.38;1.80;;;21.30;38.70;;;;;;5053545;28;20013;-52
2022/05/02 05:59:09;;;;;;;2.40;1.88;;;21.40;38.80;;;;;;5051380;28;20028;-53
2022/05/02 06:01:52;;;;;;;2.42;2.22;;;21.30;38.70;;;;;;5038075;28;20040;-49
2022/05/02 06:04:18;;;;;;;3.08;2.13;;;21.40;38.70;;;;;;5052634;28;20099;-52
2022/05/02 06:06:44;;;;;;;2.97;2.15;;;21.40;38.70;;;;;;5053976;28;20037;-52
2022/05/02 06:09:12;;;;;;;3.35;2.08;;;21.40;38.80;;;;;;5053268;28;20016;-49
2022/05/02 06:11:39;;;;;;;2.53;2.15;;;21.40;38.70;;;;;;5052165;28;20097;-51
2022/05/02 06:14:05;;;;;;;2.13;1.92;;;21.40;38.70;;;;;;5052880;28;20021;-54
2022/05/02 06:19:27;;;;;;;2.45;2.00;;;21.50;38.70;;;;;;5052279;28;20021;-51
2022/05/02 06:21:54;;;;;;;3.70;2.00;;;21.50;38.70;;;;;;5067150;28;20087;-56
2022/05/02 06:24:19;;;;;;;2.70;2.15;;;21.50;38.70;;;;;;5067683;28;20017;-50
2022/05/02 06:26:48;;;;;;;2.30;2.10;;;21.50;38.70;;;;;;5051289;28;20021;-55
2022/05/02 06:29:14;;;;;;;2.70;2.10;;;21.50;38.70;;;;;;5052256;28;20017;-54
2022/05/02 06:31:45;;;;;;;2.03;1.75;;;21.50;38.70;;;;;;5052623;28;20440;-53
2022/05/02 06:34:12;;;;;;;3.13;2.13;;;21.50;38.70;;;;;;5035130;28;20013;-51
2022/05/02 06:36:57;;;;;;;2.58;2.05;;;21.60;38.70;;;;;;5067806;28;20009;-54
2022/05/02 06:39:23;;;;;;;2.45;2.00;;;21.60;38.70;;;;;;5050964;28;20030;-52
2022/05/02 06:42:08;;;;;;;3.22;2.03;;;21.60;38.70;;;;;;5051793;28;20017;-52
2022/05/02 06:45:01;;;;;;;2.10;1.80;;;21.60;38.60;;;;;;5050359;28;20028;-55
2022/05/02 06:47:30;;;;;;;2.15;1.95;;;21.60;38.60;;;;;;5051739;28;20133;-51
2022/05/02 06:49:58;;;;;;;6.63;2.00;;;21.60;38.60;;;;;;5051856;28;20017;-59
2022/05/02 06:52:40;;;;;;;3.35;1.88;;;21.60;38.50;;;;;;5050700;28;20467;-59
2022/05/02 06:55:18;;;;;;;4.07;1.80;;;21.70;38.60;;;;;;5052138;28;20009;-59
2022/05/02 06:58:01;;;;;;;3.88;2.10;;;21.70;38.60;;;;;;5050593;28;20048;-59
2022/05/02 07:00:26;;;;;;;2.88;2.05;;;21.70;38.50;;;;;;5051760;28;20021;-59
2022/05/02 07:03:31;;;;;;;2.72;1.77;;;21.70;38.50;;;;;;5034064;28;20031;-59
2022/05/02 07:06:06;;;;;;;2.38;1.48;;;21.70;38.60;;;;;;5051560;28;20032;-57
2022/05/02 07:09:06;;;;;;;2.20;1.73;;;21.80;38.50;;;;;;5051386;28;20021;-58
2022/05/02 07:11:54;;;;;;;1.75;1.63;;;21.70;38.50;;;;;;4990210;28;20030;-57
2022/05/02 07:14:28;;;;;;;2.75;1.70;;;21.70;38.60;;;;;;4976015;28;20034;-58
2022/05/02 07:16:55;;;;;;;3.13;2.13;;;21.80;38.50;;;;;;4990390;28;20018;-58
2022/05/02 07:19:48;;;;;;;4.35;2.88;;;21.70;38.50;;;;;;4942383;28;20737;-59
2022/05/02 07:22:15;;;;;;;6.50;3.25;;;21.80;38.90;;;;;;4984108;28;20061;-59
2022/05/02 07:25:07;;;;;;;9.75;3.80;;;21.90;39.30;;;;;;4973799;28;20554;-58
2022/05/02 07:27:50;;;;;;;8.73;3.70;;;21.90;39.40;;;;;;4989976;28;20038;-58
2022/05/02 07:30:17;;;;;;;14.55;3.92;;;22.00;39.60;;;;;;4989778;28;20014;-57
2022/05/02 07:32:43;;;;;;;10.50;3.33;;;22.20;39.80;;;;;;4957950;28;20097;-58
2022/05/02 07:35:10;;;;;;;8.80;3.63;;;22.20;39.70;;;;;;4957820;28;20605;-60
2022/05/02 07:37:36;;;;;;;14.52;3.15;;;22.30;40.00;;;;;;4989971;28;20101;-60
2022/05/02 07:40:02;;;;;;;7.43;3.08;;;22.40;40.00;;;;;;4989594;28;20094;-58
2022/05/02 07:42:29;;;;;;;6.90;2.70;;;22.50;40.00;;;;;;4972972;28;20497;-57
2022/05/02 07:44:56;;;;;;;6.38;2.95;;;22.50;40.30;;;;;;4972602;28;20156;-58
2022/05/02 07:47:22;;;;;;;6.03;2.50;;;22.50;40.60;;;;;;5017146;28;20083;-58
2022/05/02 07:49:48;;;;;;;7.13;2.50;;;22.50;40.70;;;;;;5048855;28;20106;-59
2022/05/02 07:52:21;;;;;;;6.40;2.50;;;22.60;40.70;;;;;;5050296;28;20028;-57
2022/05/02 07:54:48;;;;;;;8.48;2.75;;;22.60;40.80;;;;;;5050437;28;20032;-55
2022/05/02 07:57:14;;;;;;;5.70;2.72;;;22.60;41.00;;;;;;5049004;28;20087;-57
2022/05/02 07:59:40;;;;;;;10.25;3.10;;;22.70;41.00;;;;;;5032056;28;20032;-55
2022/05/02 08:02:06;;;;;;;6.32;2.60;;;22.70;41.20;;;;;;5051222;28;20013;-58
2022/05/02 08:04:36;;;;;;;10.63;2.83;;;22.70;41.40;;;;;;5050724;28;20029;-58
2022/05/02 08:07:28;;;;;;;6.60;2.30;;;22.60;41.30;;;;;;5051257;28;20032;-56
2022/05/02 08:10:33;;;;;;;7.00;2.53;;;22.50;41.40;;;;;;5052092;28;20484;-57
2022/05/02 08:13:24;;;;;;;10.00;3.00;;;22.40;41.40;;;;;;5050845;28;20437;-57
2022/05/02 08:15:54;;;;;;;8.88;3.00;;;22.40;41.50;;;;;;5050514;28;20092;-55
2022/05/02 08:18:39;;;;;;;13.05;3.40;;;22.30;41.50;;;;;;5049397;28;20055;-56
2022/05/02 08:21:28;;;;;;;16.38;5.40;;;22.30;41.70;;;;;;5051712;28;20120;-54
2022/05/02 08:27:17;;;;;;;11.30;5.05;;;22.30;40.80;;;;;;5052843;28;20475;-56
2022/05/02 08:30:22;;;;;;;15.38;4.78;;;22.30;40.90;;;;;;5052405;28;20017;-55
2022/05/02 08:33:07;;;;;;;23.95;5.38;;;22.50;40.90;;;;;;5043608;28;20025;-54
2022/05/02 08:35:51;;;;;;;17.95;5.35;;;22.50;41.10;;;;;;5053086;28;20040;-55
2022/05/02 08:38:38;;;;;;;13.40;4.18;;;22.50;41.20;;;;;;5052860;28;20048;-54
2022/05/02 08:41:07;;;;;;;13.40;4.55;;;22.60;41.50;;;;;;5052883;28;20025;-54
2022/05/02 08:44:12;;;;;;;16.95;4.32;;;22.60;41.10;;;;;;5052892;28;20048;-59
2022/05/02 08:46:53;;;;;;;16.35;4.30;;;22.60;41.40;;;;;;5048572;28;20031;-54
2022/05/02 08:50:02;;;;;;;13.57;4.30;;;22.60;41.50;;;;;;5051376;28;20020;-53
2022/05/02 08:52:43;;;;;;;11.60;3.83;;;22.60;41.60;;;;;;5051700;28;20020;-51
2022/05/02 08:55:47;;;;;;;12.32;4.57;;;22.60;41.70;;;;;;5052770;28;20102;-51
2022/05/02 08:58:55;;;;;;;8.48;3.90;;;22.70;41.40;;;;;;5052655;28;20495;-48
2022/05/02 09:02:08;;;;;;;11.82;3.85;;;22.70;41.10;;;;;;4975128;28;20034;-53
2022/05/02 09:04:43;;;;;;;23.98;4.45;;;22.80;41.50;;;;;;4933129;29;20024;-50
2022/05/02 09:07:27;;;;;;;18.13;4.32;;;22.90;41.40;;;;;;4933708;29;20043;-53
2022/05/02 09:10:14;;;;;;;19.05;4.75;;;22.90;41.50;;;;;;4934407;29;20036;-54
2022/05/02 09:13:02;;;;;;;19.63;6.85;;;22.80;41.30;;;;;;4933910;29;20067;-57
2022/05/02 09:15:40;;;;;;;17.35;5.68;;;22.30;36.70;;;;;;4934178;29;20023;-56
2022/05/02 09:18:36;;;;;;;19.08;6.13;;;22.20;40.10;;;;;;4934703;29;20107;-57
2022/05/02 09:21:16;;;;;;;18.90;6.18;;;22.00;39.20;;;;;;4935183;29;20028;-56
2022/05/02 09:23:59;;;;;;;23.67;7.13;;;22.00;38.00;;;;;;4935394;29;20042;-58
2022/05/02 09:27:02;;;;;;;12.48;6.20;;;22.10;37.30;;;;;;4934830;29;20062;-56
2022/05/02 09:29:51;;;;;;;12.73;6.13;;;22.20;36.80;;;;;;4934177;29;20067;-51
2022/05/02 09:32:40;;;;;;;12.30;5.35;;;22.00;36.50;;;;;;4934059;29;20028;-53
2022/05/02 09:35:06;;;;;;;15.35;4.72;;;22.20;36.30;;;;;;4968606;28;20079;-54
2022/05/02 09:37:39;;;;;;;14.73;5.35;;;22.20;35.60;;;;;;4985539;28;20032;-54
2022/05/02 09:40:15;;;;;;;8.43;4.82;;;22.30;35.40;;;;;;5052854;28;20092;-53
2022/05/02 09:43:13;;;;;;;12.27;6.10;;;22.30;35.10;;;;;;5053147;28;20136;-55
2022/05/02 09:52:02;;;;;;;9.15;5.32;;;22.00;34.70;;;;;;5053595;28;20102;-53
2022/05/02 09:57:58;;;;;;;11.43;4.90;;;22.10;34.10;;;;;;5053330;28;20500;-55
2022/05/02 10:03:15;;;;;;;;;;;22.20;34.10;;;;;;5040192;28;20072;-58
2022/05/02 10:06:04;;;;;;;11.52;5.57;;;22.10;34.60;;;;;;5054031;28;19984;-58
2022/05/02 10:08:50;;;;;;;15.30;5.35;;;22.00;34.10;;;;;;5053660;28;20032;-58
2022/05/02 10:11:20;;;;;;;7.00;4.28;;;21.70;33.80;;;;;;5052151;28;20071;-56
2022/05/02 10:13:58;;;;;;;10.52;4.95;;;21.70;33.70;;;;;;5054319;28;20039;-57
2022/05/02 10:17:18;;;;;;;11.43;5.22;;;21.60;34.20;;;;;;5052342;28;20071;-58
2022/05/02 10:20:15;;;;;;;9.98;4.45;;;21.50;34.10;;;;;;4992078;28;20464;-56
2022/05/02 10:22:53;;;;;;;9.63;4.68;;;21.30;34.00;;;;;;4976871;28;20054;-58
2022/05/02 10:25:35;;;;;;;15.50;5.60;;;21.20;33.70;;;;;;4991968;28;20501;-57
2022/05/02 10:28:23;;;;;;;9.43;4.55;;;21.10;33.70;;;;;;4959618;28;20175;-57
2022/05/02 10:30:50;;;;;;;12.35;4.88;;;21.10;33.90;;;;;;4991520;28;20037;-55
2022/05/02 10:33:24;;;;;;;12.60;4.53;;;21.00;33.90;;;;;;4991423;28;20165;-57
2022/05/02 10:35:51;;;;;;;12.38;5.97;;;21.00;33.90;;;;;;4991168;28;20462;-57
2022/05/02 10:38:20;;;;;;;6.82;5.20;;;20.80;33.00;;;;;;4991726;28;20038;-59
2022/05/02 10:40:46;;;;;;;8.68;5.05;;;20.70;33.40;;;;;;4975131;28;20022;-58
2022/05/02 10:43:21;;;;;;;8.68;5.07;;;20.70;33.30;;;;;;4958098;28;20044;-56
2022/05/02 10:45:47;;;;;;;11.77;5.53;;;20.70;33.00;;;;;;4974603;28;20026;-57
2022/05/02 10:48:54;;;;;;;15.15;6.90;;;20.70;32.90;;;;;;4942029;28;20488;-54
2022/05/02 10:51:34;;;;;;;16.55;7.30;;;20.70;33.20;;;;;;5007828;28;20524;-47
2022/05/02 10:54:00;;;;;;;13.35;7.85;;;20.70;35.20;;;;;;4993965;28;20516;-50
2022/05/02 10:56:42;;;;;;;11.63;6.65;;;20.40;35.50;;;;;;5010748;28;20029;-53
2022/05/02 10:59:13;;;;;;;10.55;6.95;;;20.40;34.90;;;;;;5009833;28;20471;-54
2022/05/02 11:01:58;;;;;;;;;;;20.40;34.40;;;;;;5009301;28;20022;-53
2022/05/02 11:05:03;;;;;;;13.50;7.13;;;20.50;34.20;;;;;;5008869;28;19902;-48
2022/05/02 11:07:41;;;;;;;24.92;7.32;;;20.60;34.20;;;;;;5008053;28;20030;-50
2022/05/02 11:10:09;;;;;;;16.08;6.32;;;20.80;33.80;;;;;;5007937;28;20036;-53
2022/05/02 11:12:44;;;;;;;16.55;6.78;;;20.70;33.90;;;;;;4992049;28;20048;-53
2022/05/02 11:15:35;;;;;;;9.32;7.18;;;20.50;33.90;;;;;;4992533;28;20107;-51
2022/05/02 11:18:08;;;;;;;13.00;6.03;;;20.50;33.60;;;;;;4930612;29;20306;-45
2022/05/02 11:20:43;;;;;;;10.73;5.00;;;20.50;33.40;;;;;;4930475;29;20035;-50
2022/05/02 11:23:12;;;;;;;12.45;6.43;;;20.50;33.50;;;;;;4930381;29;20150;-46
2022/05/02 11:26:17;;;;;;;8.68;6.63;;;20.30;33.40;;;;;;4954625;28;20083;-49
2022/05/02 11:29:05;;;;;;;13.77;6.93;;;20.50;34.20;;;;;;4906702;28;20188;-52
2022/05/02 11:32:05;;;;;;;14.95;7.82;;;20.50;33.80;;;;;;4968982;28;20111;-49
2022/05/02 11:34:47;;;;;;;11.88;7.45;;;20.50;33.50;;;;;;4969185;28;20098;-47
2022/05/02 11:37:29;;;;;;;19.38;8.80;;;20.50;34.00;;;;;;4953936;28;20455;-47
2022/05/02 11:40:06;;;;;;;10.68;6.78;;;20.40;34.60;;;;;;4955181;28;20106;-51
2022/05/02 11:42:33;;;;;;;23.20;7.15;;;20.50;34.20;;;;;;4954747;28;20023;-48
2022/05/02 11:45:03;;;;;;;21.67;7.88;;;20.70;34.20;;;;;;4969309;28;20110;-51
2022/05/02 11:47:49;;;;;;;14.35;6.63;;;20.80;33.70;;;;;;4969338;28;20062;-50
2022/05/02 11:50:18;;;;;;;14.25;7.95;;;20.90;33.40;;;;;;4969221;28;20098;-51
2022/05/02 11:52:48;;;;;;;10.57;7.53;;;20.90;33.60;;;;;;4968931;28;20023;-50
2022/05/02 11:55:14;;;;;;;12.55;7.93;;;20.70;33.50;;;;;;5007520;28;20112;-51
2022/05/02 11:57:44;;;;;;;11.82;6.90;;;20.40;33.80;;;;;;5069198;28;20392;-50
2022/05/02 12:00:15;;;;;;;16.27;7.50;;;20.40;34.40;;;;;;5068982;28;20043;-53
2022/05/02 12:02:42;;;;;;;;;;;20.70;33.10;;;;;;5054161;28;20078;-49
2022/05/02 12:05:32;;;;;;;10.57;6.20;;;20.50;32.60;;;;;;5054297;28;20328;-45
2022/05/02 12:07:59;;;;;;;;;;;20.50;33.60;;;;;;5054408;28;20033;-49
2022/05/02 12:10:47;;;;;;;14.15;7.95;;;20.40;33.70;;;;;;5053988;28;20347;-50
2022/05/02 12:13:18;;;;;;;10.48;7.72;;;20.50;34.10;;;;;;5054132;28;20013;-47
2022/05/02 12:16:03;;;;;;;12.37;6.80;;;20.60;33.70;;;;;;5054242;28;20425;-51
2022/05/02 12:18:48;;;;;;;13.13;7.00;;;20.70;33.90;;;;;;5054769;28;20021;-53
2022/05/02 12:21:22;;;;;;;17.02;7.18;;;20.80;33.40;;;;;;5054617;28;20017;-46
2022/05/02 12:23:48;;;;;;;13.93;8.25;;;20.80;33.40;;;;;;5054930;28;20049;-50
2022/05/02 12:26:19;;;;;;;13.43;8.20;;;20.60;32.90;;;;;;5053388;28;20075;-50
2022/05/02 12:28:51;;;;;;;18.80;8.27;;;20.50;33.10;;;;;;5053305;28;20031;-52
2022/05/02 12:31:29;;;;;;;17.33;8.30;;;20.50;33.80;;;;;;5053729;28;20013;-53
2022/05/02 12:34:09;;;;;;;29.13;8.00;;;20.50;34.00;;;;;;5054777;28;20020;-49
2022/05/02 12:36:50;;;;;;;21.60;7.30;;;20.70;34.80;;;;;;5054962;28;20009;-51
2022/05/02 12:39:25;;;;;;;21.33;7.30;;;20.90;34.70;;;;;;5053430;28;20020;-53
2022/05/02 12:42:18;;;;;;;17.63;7.88;;;21.20;34.30;;;;;;5054547;28;20150;-54
2022/05/02 12:45:16;;;;;;;15.00;10.00;;;21.00;33.80;;;;;;5054381;28;20024;-53
2022/05/02 12:47:57;;;;;;;13.77;9.85;;;20.70;33.90;;;;;;5052784;28;20494;-53
2022/05/02 12:50:25;;;;;;;10.38;7.82;;;20.50;34.30;;;;;;5052477;28;20043;-50
2022/05/02 12:52:55;;;;;;;11.10;8.00;;;20.60;34.90;;;;;;5069664;28;20010;-47
2022/05/02 12:55:22;;;;;;;12.57;8.10;;;20.60;34.60;;;;;;5054104;28;20013;-49
2022/05/02 13:00:37;;;;;;;12.32;7.63;;;20.80;34.20;;;;;;5054699;28;20078;-47
2022/05/02 13:03:16;;;;;;;9.10;6.72;;;21.10;34.20;;;;;;5053804;28;20025;-46
2022/05/02 13:06:06;;;;;;;12.43;8.27;;;21.10;34.20;;;;;;5053992;28;20025;-50
2022/05/02 13:08:37;;;;;;;11.85;8.00;;;20.90;34.00;;;;;;5041563;28;20041;-50
2022/05/02 13:11:22;;;;;;;13.45;8.13;;;21.00;34.20;;;;;;5054323;28;20032;-56
2022/05/02 13:13:52;;;;;;;10.52;7.30;;;20.80;34.00;;;;;;5054279;28;20029;-57
2022/05/02 13:16:28;;;;;;;8.63;6.72;;;21.00;34.00;;;;;;5054249;28;20008;-57
2022/05/02 13:18:55;;;;;;;10.15;6.63;;;21.20;33.60;;;;;;5054280;28;20017;-57
2022/05/02 13:21:26;;;;;;;16.88;6.65;;;21.40;33.60;;;;;;5055087;28;20135;-57
2022/05/02 13:24:00;;;;;;;15.05;6.60;;;21.50;34.00;;;;;;5053883;28;20029;-55
2022/05/02 13:27:02;;;;;;;16.27;8.05;;;21.50;33.60;;;;;;5056531;28;20088;-54
2022/05/02 13:30:07;;;;;;;17.95;9.02;;;21.50;32.90;;;;;;5055680;28;20033;-53
2022/05/02 13:32:36;;;;;;;14.40;6.53;;;21.20;33.40;;;;;;5055942;28;20029;-54
2022/05/02 13:35:10;;;;;;;11.13;6.40;;;21.20;33.50;;;;;;5056260;28;20028;-52
2022/05/02 13:37:43;;;;;;;7.90;5.10;;;21.30;33.50;;;;;;5055800;28;20066;-52
2022/05/02 13:40:10;;;;;;;8.93;5.10;;;21.40;33.30;;;;;;5056431;28;20017;-53
2022/05/02 13:42:59;;;;;;;9.85;4.93;;;21.60;33.10;;;;;;5055744;28;20044;-53
2022/05/02 13:45:43;;;;;;;8.23;3.58;;;21.70;32.90;;;;;;5055085;28;20013;-52
2022/05/02 13:48:34;;;;;;;7.10;3.88;;;21.80;33.30;;;;;;5054174;28;20029;-54